EYVIEYPA

Guest
Details From EYVI - VILNIUS INTL
To EYPA - PALANGA INTL
Flight Number -
Tags generated
Created
Modified
Stats Distance 164 nm / 304 km
Max Altitude 12,900 ft / 3,932 m
Waypoints 4
Social Downloads 4
Likes 0
Share VATSIM

Download

Looking for another format? Having issues loading an existing format? Contact us
Advertisement - Login to hide

Notes

Basic altitude profile: - Ascent Rate: 2500ft/min - Ascent Speed: 250kts - Cruise Altitude: 35000ft - Cruise Speed: 420kts - Descent Rate: 1500ft/min - Descent Speed: 250kts Options: - Use NATs: yes - Use PACOTS: yes - Use low airways: yes - Use high airways: yes

Route

EYVI TOTRA M996 MANUX EYPA

ID Type Via Altitude Latitude Longitude Leg Dist Tot Dist Heading (true) Name
O EYVI APT - 0 ft / 0 m 54.63417˚ 25.28580˚ - 0 nm - VILNIUS INTL
TOTRA FIX - 12,900 ft / 3,932 m 55.44306˚ 22.77111˚ 99 nm 99 nm 300° / 298° -
MANUX FIX M996 (AWY-LO) 9,500 ft / 2,896 m 55.67611˚ 22.03556˚ 28 nm 127 nm 300° / 299° -
O EYPA APT - 0 ft / 0 m 55.97312˚ 21.09381˚ 36 nm 164 nm 300° / 299° PALANGA INTL

Altitude Profile

Advertisement - Login to hide

Weather


0- 5 10 15 20 25 30 35+ Temperature / ° C

Clouds and Precipitation
Forecast for 2018-05-26 12:00 UTC. Updated 42 minutes ago

Ground ~20,000 ft ~40,000 ft Winds

EYVI

Details ICAO EYVI (VNO)
Name VILNIUS INTL
Region Lithuania
Timezone Europe/Vilnius (UTC+3.0)
Stats Elevation 646 ft / 197 m (AMSL)
Location 54.634166° 25.285796°
Runways 1
Magnetic Variation 7.530° E

METAR

EYVI 261150Z VRB09KT 9999 SCT048 23/11 Q1027 NOSIG

Decode

TAF

TAF EYVI 260504Z 2606/2706 12010G20KT 9000 NSC

Decode

Departure Runways

ID Width Length Bearing (true) Bearing (mag) Surface Threshold Offset Overrun Length
02 164 ft / 50 m 8,210 ft / 2,502 m 21.89° 14.36° Asphalt 0 ft / 0 m 151 ft / 46 m
20 164 ft / 50 m 8,210 ft / 2,502 m 201.91° 194.38° Asphalt 0 ft / 0 m 0 ft / 0 m

EYPA

Details ICAO EYPA (PLQ)
Name PALANGA INTL
Region Lithuania
Timezone Europe/Vilnius (UTC+3.0)
Stats Elevation 33 ft / 10 m (AMSL)
Location 55.973115° 21.093811°
Runways 1
Magnetic Variation 6.589° E

METAR

EYPA 261150Z 33005KT 280V040 9999 FEW040 BKN110 20/13 Q1026

Decode

TAF

Not found

Destination Runways

ID Width Length Bearing (true) Bearing (mag) Surface Threshold Offset Overrun Length
01 131 ft / 40 m 6,473 ft / 1,973 m 12.70° 6.11° Asphalt 0 ft / 0 m 0 ft / 0 m
19 131 ft / 40 m 6,473 ft / 1,973 m 192.71° 186.12° Asphalt 0 ft / 0 m 0 ft / 0 m

Approach Navaids

Runway Type Ident Frequency Range Bearing (true) Bearing (mag) Slope Elevation
19 Localiser IAN 110.10 MHz 18 nm / 33 km 192.71° 186.12° - 33 ft / 10 m (AMSL)
19 Glidescope IAN 110.10 MHz 10 nm / 19 km 192.71° 186.12° 3.00° 33 ft / 10 m (AMSL)
19 DME IAN 110.10 MHz 18 nm / 33 km - - - 39 ft / 12 m (AMSL)

Popular Alternatives